This is the latest recevied weather packets stored in our database for station/object EA4URC-13. If no packets are shown the sender has not sent any weather packets the latest 10 day(s).
| Time | Temp. | Humidity | Pressure | Rain* | Wind** | Luminosity | Snow |
|---|---|---|---|---|---|---|---|
| 1777548564 | 22.22° C | 37% | 1005.2 hPa | - | - | - | - |
| 1777547664 | 21.11° C | 38% | 1005.6 hPa | - | - | - | - |
| 1777545858 | 20.56° C | 39% | 1006.1 hPa | - | - | - | - |
| 1777544958 | 19.44° C | 39% | 1006.6 hPa | - | - | - | - |
| 1777544045 | 18.89° C | 40% | 1006.9 hPa | - | - | - | - |
| 1777543146 | 18.33° C | 43% | 1006.9 hPa | - | - | - | - |
| 1777542233 | 19.44° C | 42% | 1006.3 hPa | - | - | - | - |
| 1777541333 | 18.89° C | 43% | 1006.7 hPa | - | - | - | - |
| 1777540420 | 18.89° C | 45% | 1006.7 hPa | - | - | - | - |
| 1777539527 | 18.89° C | 45% | 1006.5 hPa | - | - | - | - |
| 1777538607 | 17.78° C | 47% | 1006.9 hPa | - | - | - | - |
| 1777537707 | 16.67° C | 50% | 1007.3 hPa | - | - | - | - |
| 1777536801 | 16.11° C | 52% | 1007.5 hPa | - | - | - | - |
| 1777535895 | 16.67° C | 51% | 1007.2 hPa | - | - | - | - |
| 1777534994 | 15.56° C | 52% | 1007.5 hPa | - | - | - | - |
| 1777534091 | 15.56° C | 52% | 1007.3 hPa | - | - | - | - |
| 1777533191 | 15° C | 56% | 1007.6 hPa | - | - | - | - |
| 1777532479 | 14.44° C | 58% | 1007.4 hPa | - | - | - | - |
| 1777532281 | 14.44° C | 58% | 1007.4 hPa | - | - | - | - |
| 1777531388 | 14.44° C | 60% | 1007.2 hPa | - | - | - | - |
| 1777530481 | 14.44° C | 60% | 1007.4 hPa | - | - | - | - |
| 1777529581 | 13.89° C | 60% | 1007.4 hPa | - | - | - | - |
| 1777528681 | 13.89° C | 61% | 1007.4 hPa | - | - | - | - |
| 1777526971 | 13.33° C | 61% | 1007.4 hPa | - | - | - | - |
| 1777526051 | 13.33° C | 63% | 1007.3 hPa | - | - | - | - |
* Rain since midnight (hover to see other rain measurements)
** Current wind speed in m/s (hover to see current wind gust speed)